createdAt,value
2022-09-04T00:02:33.960Z,16.54
2022-09-04T00:05:20.282Z,16.39
2022-09-04T00:07:59.795Z,16.40
2022-09-04T00:10:39.194Z,16.40
2022-09-04T00:13:27.698Z,16.39
2022-09-04T00:16:06.876Z,16.34
2022-09-04T00:18:49.219Z,16.46
2022-09-04T00:21:28.961Z,16.29
2022-09-04T00:24:01.914Z,16.30
2022-09-04T00:26:41.616Z,16.27
2022-09-04T00:29:21.357Z,16.19
2022-09-04T00:31:54.965Z,16.16
2022-09-04T00:34:34.347Z,16.13
2022-09-04T00:37:11.396Z,16.11
2022-09-04T00:39:47.743Z,16.10
2022-09-04T00:42:37.671Z,16.14
2022-09-04T00:45:17.404Z,16.12
2022-09-04T00:48:12.231Z,16.04
2022-09-04T00:50:48.725Z,16.03
2022-09-04T00:53:40.161Z,16.01
2022-09-04T00:56:33.207Z,15.96
2022-09-04T00:59:26.235Z,16.00
2022-09-04T01:01:59.940Z,15.99
2022-09-04T01:04:45.557Z,15.97
2022-09-04T01:07:20.725Z,16.00
2022-09-04T01:10:11.054Z,15.98
2022-09-04T01:13:12.922Z,15.98
2022-09-04T01:15:51.148Z,15.94
2022-09-04T01:18:33.011Z,15.99
2022-09-04T01:21:23.494Z,15.96
2022-09-04T01:24:15.230Z,16.00
2022-09-04T01:27:04.046Z,16.01
2022-09-04T01:29:56.682Z,15.98
2022-09-04T01:32:39.093Z,15.92
2022-09-04T01:35:32.353Z,16.07
2022-09-04T01:38:36.137Z,16.01
2022-09-04T01:41:20.943Z,15.94
2022-09-04T01:43:52.609Z,15.96
2022-09-04T01:46:34.860Z,16.03
2022-09-04T01:49:08.507Z,15.96
2022-09-04T01:51:44.552Z,15.96
2022-09-04T01:54:42.464Z,15.92
2022-09-04T01:57:22.011Z,15.92
2022-09-04T02:00:12.776Z,15.87
2022-09-04T02:02:48.923Z,15.86
2022-09-04T02:05:30.324Z,15.80
2022-09-04T02:08:33.110Z,15.87
2022-09-04T02:11:27.816Z,15.76
2022-09-04T02:14:14.339Z,15.64
2022-09-04T02:16:57.019Z,15.63
2022-09-04T02:19:48.735Z,15.59
2022-09-04T02:22:31.273Z,15.56
2022-09-04T02:25:07.791Z,15.55
2022-09-04T02:27:53.494Z,15.48
2022-09-04T02:30:24.634Z,15.59
2022-09-04T02:33:06.850Z,15.53
2022-09-04T02:35:52.479Z,15.52
2022-09-04T02:38:34.984Z,15.50
2022-09-04T02:41:34.546Z,15.52
2022-09-04T02:44:17.306Z,15.47
2022-09-04T02:47:11.744Z,15.45
2022-09-04T02:50:01.921Z,15.45
2022-09-04T02:52:44.278Z,15.48
2022-09-04T02:55:49.673Z,15.46
2022-09-04T02:58:58.532Z,15.57
2022-09-04T03:01:35.129Z,15.47
2022-09-04T03:04:11.756Z,15.63
2022-09-04T03:06:57.152Z,15.40
2022-09-04T03:09:39.709Z,15.36
2022-09-04T03:12:15.122Z,15.27
2022-09-04T03:15:00.786Z,15.25
2022-09-04T03:17:44.802Z,15.27
2022-09-04T03:20:27.953Z,15.18
2022-09-04T03:23:04.091Z,15.15
2022-09-04T03:25:37.754Z,15.13
2022-09-04T03:28:11.295Z,15.12
2022-09-04T03:30:43.040Z,15.18
2022-09-04T03:33:27.318Z,15.19
2022-09-04T03:36:06.999Z,15.15
2022-09-04T03:38:49.706Z,15.13
2022-09-04T03:41:39.630Z,15.12
2022-09-04T03:44:19.226Z,15.28
2022-09-04T03:47:12.160Z,15.20
2022-09-04T03:49:54.582Z,15.18
2022-09-04T03:53:02.214Z,15.06
2022-09-04T03:55:41.622Z,15.02
2022-09-04T03:58:15.157Z,15.00
2022-09-04T04:00:56.345Z,14.93
2022-09-04T04:03:58.486Z,14.97
2022-09-04T04:06:40.995Z,14.97
2022-09-04T04:09:37.122Z,14.98
2022-09-04T04:12:27.353Z,14.89
2022-09-04T04:15:09.160Z,14.85
2022-09-04T04:17:42.688Z,14.78
2022-09-04T04:20:25.109Z,14.81
2022-09-04T04:23:33.704Z,14.76
2022-09-04T04:26:28.371Z,14.75
2022-09-04T04:29:10.948Z,14.64
2022-09-04T04:31:44.769Z,14.67
2022-09-04T04:34:42.543Z,14.63
2022-09-04T04:37:33.477Z,14.64
2022-09-04T04:40:21.933Z,14.64
2022-09-04T04:43:19.837Z,14.64
2022-09-04T04:46:08.481Z,14.58
2022-09-04T04:49:03.134Z,14.51
2022-09-04T04:51:56.157Z,14.48
2022-09-04T04:54:44.352Z,14.49
2022-09-04T04:57:32.735Z,14.46
2022-09-04T05:00:26.793Z,14.49
2022-09-04T05:03:13.423Z,14.57
2022-09-04T05:05:54.054Z,14.50
2022-09-04T05:08:48.071Z,14.40
2022-09-04T05:11:33.621Z,14.48
2022-09-04T05:14:12.700Z,14.54
2022-09-04T05:17:16.278Z,14.52
2022-09-04T05:19:52.626Z,14.51
2022-09-04T05:22:35.185Z,14.51
2022-09-04T05:25:28.128Z,14.58
2022-09-04T05:28:17.063Z,14.53
2022-09-04T05:30:57.074Z,14.58
2022-09-04T05:33:47.330Z,14.53
2022-09-04T05:36:40.332Z,14.53
2022-09-04T05:39:16.949Z,14.58
2022-09-04T05:42:23.773Z,14.76
2022-09-04T05:45:00.152Z,14.64
2022-09-04T05:47:50.463Z,14.74
2022-09-04T05:50:24.009Z,14.75
2022-09-04T05:53:23.158Z,14.73
2022-09-04T05:56:28.603Z,14.70
2022-09-04T05:59:02.261Z,14.77
2022-09-04T06:01:55.417Z,14.75
2022-09-04T06:04:51.712Z,14.80
2022-09-04T06:07:36.583Z,14.89
2022-09-04T06:10:19.122Z,14.89
2022-09-04T06:13:07.550Z,15.00
2022-09-04T06:15:50.169Z,15.12
2022-09-04T06:18:38.975Z,15.32
2022-09-04T06:21:15.458Z,15.48
2022-09-04T06:23:54.802Z,15.46
2022-09-04T06:26:28.432Z,15.46
2022-09-04T06:29:19.351Z,15.49
2022-09-04T06:32:23.525Z,15.46
2022-09-04T06:35:09.502Z,15.38
2022-09-04T06:37:51.949Z,15.35
2022-09-04T06:40:48.025Z,15.39
2022-09-04T06:43:26.469Z,15.57
2022-09-04T06:46:06.942Z,15.53
2022-09-04T06:48:49.438Z,15.54
2022-09-04T06:51:39.575Z,15.59
2022-09-04T06:54:25.386Z,15.64
2022-09-04T06:57:12.672Z,15.57
2022-09-04T07:00:07.019Z,15.66
2022-09-04T07:02:49.920Z,15.66
2022-09-04T07:05:26.256Z,15.69
2022-09-04T07:08:17.805Z,15.76
2022-09-04T07:10:51.343Z,15.80
2022-09-04T07:13:41.337Z,15.85
2022-09-04T07:16:37.626Z,15.96
2022-09-04T07:19:33.806Z,16.00
2022-09-04T07:22:25.309Z,16.16
2022-09-04T07:25:01.879Z,16.20
2022-09-04T07:27:52.628Z,16.23
2022-09-04T07:30:25.965Z,16.30
2022-09-04T07:33:02.458Z,16.38
2022-09-04T07:35:38.644Z,16.39
2022-09-04T07:38:50.459Z,16.54
2022-09-04T07:41:46.675Z,16.61
2022-09-04T07:44:29.125Z,16.76
2022-09-04T07:47:14.311Z,16.85
2022-09-04T07:50:21.170Z,16.93
2022-09-04T07:53:08.339Z,16.93
2022-09-04T07:55:49.114Z,17.11
2022-09-04T07:58:45.643Z,17.04
2022-09-04T08:01:25.205Z,17.12
2022-09-04T08:04:21.421Z,17.24
2022-09-04T08:06:54.947Z,17.28
2022-09-04T08:09:44.749Z,17.34
2022-09-04T08:12:51.673Z,17.43
2022-09-04T08:15:43.528Z,17.55
2022-09-04T08:18:41.783Z,17.60
2022-09-04T08:21:31.922Z,17.70
2022-09-04T08:24:23.759Z,17.82
2022-09-04T08:27:13.970Z,17.86
2022-09-04T08:30:08.633Z,17.96
2022-09-04T08:33:01.655Z,18.10
2022-09-04T08:35:37.973Z,18.08
2022-09-04T08:38:20.317Z,18.19
2022-09-04T08:41:08.816Z,18.36
2022-09-04T08:44:06.868Z,18.42
2022-09-04T08:47:00.081Z,18.50
2022-09-04T08:50:05.298Z,18.64
2022-09-04T08:53:03.979Z,18.73
2022-09-04T08:55:49.798Z,18.82
2022-09-04T08:58:56.548Z,18.85
2022-09-04T09:01:48.362Z,18.94
2022-09-04T09:04:57.202Z,19.02
2022-09-04T09:07:54.978Z,19.22
2022-09-04T09:10:40.581Z,19.31
2022-09-04T09:13:32.323Z,19.40
2022-09-04T09:16:20.491Z,19.50
2022-09-04T09:18:54.102Z,19.58
2022-09-04T09:21:49.441Z,19.67
2022-09-04T09:24:28.298Z,20.29
2022-09-04T09:27:14.107Z,20.69
2022-09-04T09:30:04.358Z,20.86
2022-09-04T09:33:08.272Z,21.02
2022-09-04T09:36:12.118Z,21.26
2022-09-04T09:38:48.635Z,21.48
2022-09-04T09:41:48.035Z,21.43
2022-09-04T09:44:21.838Z,21.49
2022-09-04T09:47:24.012Z,21.47
2022-09-04T09:50:12.605Z,21.27
2022-09-04T09:52:48.645Z,21.20
2022-09-04T09:55:41.768Z,21.16
2022-09-04T09:58:33.538Z,21.20
2022-09-04T10:01:32.666Z,21.24
2022-09-04T10:04:38.279Z,21.26
2022-09-04T10:07:16.026Z,21.32
2022-09-04T10:10:06.080Z,21.46
2022-09-04T10:12:51.517Z,21.44
2022-09-04T10:15:58.616Z,21.52
2022-09-04T10:18:56.052Z,21.59
2022-09-04T10:21:32.113Z,21.68
2022-09-04T10:24:10.217Z,21.74
2022-09-04T10:26:49.297Z,21.85
2022-09-04T10:29:55.952Z,22.00
2022-09-04T10:33:00.523Z,22.08
2022-09-04T10:35:40.143Z,22.11
2022-09-04T10:38:30.493Z,22.17
2022-09-04T10:41:21.941Z,22.27
2022-09-04T10:44:15.250Z,22.44
2022-09-04T10:47:08.250Z,22.56
2022-09-04T10:50:02.788Z,22.99
2022-09-04T10:53:00.502Z,23.16
2022-09-04T10:55:43.933Z,23.35
2022-09-04T10:58:26.311Z,23.45
2022-09-04T11:01:26.916Z,23.37
2022-09-04T11:04:08.260Z,23.15
2022-09-04T11:06:57.726Z,23.10
2022-09-04T11:09:37.196Z,23.06
2022-09-04T11:12:25.693Z,23.07
2022-09-04T11:15:05.131Z,23.26
2022-09-04T11:17:56.904Z,23.26
2022-09-04T11:20:46.824Z,23.28
2022-09-04T11:23:37.161Z,23.39
2022-09-04T11:26:46.164Z,23.68
2022-09-04T11:29:22.485Z,25.49
2022-09-04T11:32:06.590Z,27.96
2022-09-04T11:34:57.160Z,30.25
2022-09-04T11:37:47.134Z,31.67
2022-09-04T11:40:32.413Z,34.17
2022-09-04T11:43:19.118Z,34.84
2022-09-04T11:46:27.252Z,35.27
2022-09-04T11:49:22.689Z,36.03
2022-09-04T11:52:04.923Z,36.80
2022-09-04T11:54:56.486Z,37.03
2022-09-04T11:57:46.635Z,37.34
2022-09-04T12:00:19.027Z,37.61
2022-09-04T12:03:15.780Z,37.54
2022-09-04T12:06:09.465Z,36.23
2022-09-04T12:09:00.690Z,35.80
2022-09-04T12:12:00.971Z,37.83
2022-09-04T12:14:43.572Z,37.37
2022-09-04T12:17:26.286Z,35.11
2022-09-04T12:20:24.118Z,33.20
2022-09-04T12:23:03.848Z,31.25
2022-09-04T12:25:46.146Z,30.01
2022-09-04T12:28:36.569Z,29.12
2022-09-04T12:31:18.741Z,28.77
2022-09-04T12:34:04.379Z,28.07
2022-09-04T12:36:41.139Z,27.74
2022-09-04T12:39:20.518Z,27.54
2022-09-04T12:42:15.173Z,27.24
2022-09-04T12:44:58.493Z,26.10
2022-09-04T12:47:57.298Z,26.26
2022-09-04T12:50:50.788Z,26.65
2022-09-04T12:53:37.065Z,26.56
2022-09-04T12:56:26.216Z,26.60
2022-09-04T12:59:02.812Z,26.75
2022-09-04T13:01:48.606Z,26.49
2022-09-04T13:04:27.472Z,26.26
2022-09-04T13:07:07.078Z,25.95
2022-09-04T13:09:58.563Z,25.94
2022-09-04T13:12:37.757Z,25.82
2022-09-04T13:15:35.513Z,25.64
2022-09-04T13:18:27.329Z,25.83
2022-09-04T13:21:18.381Z,25.62
2022-09-04T13:24:10.781Z,25.33
2022-09-04T13:26:44.388Z,25.46
2022-09-04T13:29:29.916Z,25.32
2022-09-04T13:32:13.030Z,25.22
2022-09-04T13:35:04.554Z,25.24
2022-09-04T13:37:57.936Z,25.14
2022-09-04T13:40:35.836Z,25.17
2022-09-04T13:43:26.184Z,25.34
2022-09-04T13:45:59.477Z,25.19
2022-09-04T13:48:47.553Z,24.99
2022-09-04T13:51:23.171Z,25.08
2022-09-04T13:54:16.449Z,25.39
2022-09-04T13:57:20.404Z,25.18
2022-09-04T13:59:53.810Z,25.18
2022-09-04T14:02:27.458Z,25.03
2022-09-04T14:05:39.653Z,25.11
2022-09-04T14:07:49.980Z,25.66
2022-09-04T14:10:26.403Z,25.95
2022-09-04T14:13:02.582Z,25.68
2022-09-04T14:16:06.590Z,25.25
2022-09-04T14:18:59.178Z,24.98
2022-09-04T14:21:35.487Z,24.83
2022-09-04T14:24:25.787Z,24.80
2022-09-04T14:26:59.541Z,24.98
2022-09-04T14:29:41.817Z,25.04
2022-09-04T14:32:43.814Z,24.88
2022-09-04T14:35:28.267Z,24.80
2022-09-04T14:38:21.690Z,24.61
2022-09-04T14:41:10.285Z,24.52
2022-09-04T14:43:49.506Z,24.38
2022-09-04T14:46:24.754Z,24.30
2022-09-04T14:49:04.377Z,24.15
2022-09-04T14:51:43.552Z,24.00
2022-09-04T14:54:25.852Z,24.01
2022-09-04T14:56:59.400Z,24.13
2022-09-04T14:59:35.876Z,24.19
2022-09-04T15:02:15.343Z,24.17
2022-09-04T15:05:01.389Z,24.22
2022-09-04T15:07:43.822Z,24.08
2022-09-04T15:10:32.968Z,24.20
2022-09-04T15:13:33.469Z,24.06
2022-09-04T15:16:20.065Z,23.90
2022-09-04T15:18:59.406Z,23.83
2022-09-04T15:21:38.759Z,23.78
2022-09-04T15:24:30.738Z,23.58
2022-09-04T15:27:17.208Z,23.55
2022-09-04T15:29:56.484Z,23.46
2022-09-04T15:32:30.892Z,23.41
2022-09-04T15:35:23.164Z,23.33
2022-09-04T15:38:05.940Z,23.36
2022-09-04T15:40:59.724Z,23.24
2022-09-04T15:43:19.690Z,23.16
2022-09-04T15:45:56.251Z,22.99
2022-09-04T15:48:45.035Z,22.96
2022-09-04T15:51:35.195Z,22.86
2022-09-04T15:54:21.306Z,22.92
2022-09-04T15:57:01.144Z,22.78
2022-09-04T15:59:40.437Z,22.67
2022-09-04T16:02:35.479Z,22.53
2022-09-04T16:05:23.955Z,22.50
2022-09-04T16:08:01.589Z,22.47
2022-09-04T16:10:44.931Z,22.48
2022-09-04T16:13:30.470Z,22.43
2022-09-04T16:16:12.614Z,22.49
2022-09-04T16:19:18.106Z,22.66
2022-09-04T16:22:09.843Z,22.78
2022-09-04T16:24:46.357Z,22.92
2022-09-04T16:27:22.737Z,23.15
2022-09-04T16:30:02.980Z,23.31
2022-09-04T16:32:35.946Z,23.40
2022-09-04T16:35:13.625Z,23.45
2022-09-04T16:38:06.405Z,23.38
2022-09-04T16:40:42.616Z,23.26
2022-09-04T16:43:18.835Z,23.03
2022-09-04T16:45:55.309Z,22.67
2022-09-04T16:48:47.074Z,22.44
2022-09-04T16:51:41.413Z,22.26
2022-09-04T16:54:29.003Z,22.06
2022-09-04T16:57:12.127Z,21.88
2022-09-04T16:59:46.411Z,21.69
2022-09-04T17:02:36.409Z,21.50
2022-09-04T17:05:14.798Z,21.42
2022-09-04T17:07:59.313Z,21.34
2022-09-04T17:10:36.160Z,21.20
2022-09-04T17:13:10.226Z,21.10
2022-09-04T17:16:00.429Z,21.04
2022-09-04T17:18:32.181Z,20.98
2022-09-04T17:24:10.773Z,20.90
2022-09-04T17:28:52.135Z,20.79
2022-09-04T17:29:09.738Z,20.74
2022-09-04T17:29:33.708Z,20.74
2022-09-04T17:31:38.835Z,20.67
2022-09-04T17:40:39.024Z,20.59
2022-09-04T17:40:48.847Z,20.56
2022-09-04T17:40:49.877Z,20.50
2022-09-04T17:42:28.326Z,20.49
2022-09-04T17:45:04.813Z,20.41
2022-09-04T17:47:44.255Z,20.34
2022-09-04T17:50:25.303Z,20.24
2022-09-04T17:52:58.843Z,20.18
2022-09-04T17:55:39.173Z,20.08
2022-09-04T17:58:26.468Z,20.02
2022-09-04T18:01:14.159Z,19.98
2022-09-04T18:04:19.818Z,19.90
2022-09-04T18:06:39.194Z,19.87
2022-09-04T18:09:26.567Z,19.96
2022-09-04T18:12:09.252Z,19.85
2022-09-04T18:15:32.848Z,19.88
2022-09-04T18:17:31.633Z,19.78
2022-09-04T18:20:17.218Z,19.72
2022-09-04T18:23:12.223Z,19.70
2022-09-04T18:25:45.787Z,19.67
2022-09-04T18:28:32.220Z,19.70
2022-09-04T18:37:10.332Z,19.64
2022-09-04T18:37:20.412Z,19.52
2022-09-04T18:37:25.851Z,19.56
2022-09-04T18:39:15.686Z,19.49
2022-09-04T18:49:10.326Z,19.44
2022-09-04T18:50:32.849Z,19.41
2022-09-04T18:50:33.447Z,19.36
2022-09-04T18:50:49.096Z,19.40
2022-09-04T18:52:55.531Z,19.30
2022-09-04T18:55:34.783Z,19.30
2022-09-04T18:58:14.011Z,19.24
2022-09-04T19:00:51.884Z,19.21
2022-09-04T19:03:28.175Z,19.24
2022-09-04T19:06:01.675Z,19.19
2022-09-04T19:08:35.356Z,19.20
2022-09-04T19:11:20.827Z,19.16
2022-09-04T19:14:10.795Z,19.13
2022-09-04T19:16:44.664Z,19.12
2022-09-04T19:19:34.159Z,19.09
2022-09-04T19:22:16.545Z,19.04
2022-09-04T19:25:02.071Z,19.02
2022-09-04T19:27:35.748Z,19.05
2022-09-04T19:30:18.224Z,19.00
2022-09-04T19:33:00.484Z,18.92
2022-09-04T19:35:37.089Z,18.90
2022-09-04T19:45:03.692Z,18.92
2022-09-04T19:45:56.432Z,18.88
2022-09-04T19:46:17.662Z,18.85
2022-09-04T19:46:40.096Z,18.80
2022-09-04T19:50:53.953Z,18.77
2022-09-04T19:53:35.190Z,18.73
2022-09-04T19:54:59.842Z,18.72
2022-09-04T19:57:44.853Z,18.72
2022-09-04T20:00:42.378Z,18.75
2022-09-04T20:03:05.042Z,18.72
2022-09-04T20:05:39.946Z,18.68
2022-09-04T20:08:19.226Z,18.60
2022-09-04T20:10:52.801Z,18.58
2022-09-04T20:13:41.159Z,18.68
2022-09-04T20:16:21.910Z,18.58
2022-09-04T20:19:12.071Z,18.60
2022-09-04T20:21:50.244Z,18.50
2022-09-04T20:24:26.721Z,18.44
2022-09-04T20:27:00.345Z,18.40
2022-09-04T20:29:54.603Z,18.35
2022-09-04T20:32:24.229Z,18.38
2022-09-04T20:35:13.639Z,18.31
2022-09-04T20:37:47.936Z,18.29
2022-09-04T20:40:27.007Z,18.28
2022-09-04T20:43:15.642Z,18.25
2022-09-04T20:49:00.923Z,18.22
2022-09-04T20:52:44.635Z,18.24
2022-09-04T20:52:51.376Z,18.18
2022-09-04T20:54:23.378Z,18.15
2022-09-04T21:00:32.782Z,18.16
2022-09-04T21:03:11.154Z,18.14
2022-09-04T21:03:23.855Z,18.16
2022-09-04T21:05:40.413Z,18.15
2022-09-04T21:08:20.188Z,18.06
2022-09-04T21:10:59.514Z,18.09
2022-09-04T21:13:41.780Z,18.12
2022-09-04T21:16:33.776Z,18.11
2022-09-04T21:19:41.557Z,18.08
2022-09-04T21:22:32.560Z,18.09
2022-09-04T21:24:56.659Z,18.10
2022-09-04T21:28:03.685Z,18.14
2022-09-04T21:30:55.110Z,18.09
2022-09-04T21:33:34.479Z,18.01
2022-09-04T21:36:26.233Z,18.06
2022-09-04T21:39:05.407Z,18.04
2022-09-04T21:41:39.000Z,18.02
2022-09-04T21:44:30.779Z,18.09
2022-09-04T21:47:10.533Z,18.02
2022-09-04T21:50:00.663Z,18.00
2022-09-04T21:52:49.163Z,17.95
2022-09-04T21:57:28.818Z,17.94
2022-09-04T22:02:27.649Z,17.99
2022-09-04T22:02:36.339Z,17.92
2022-09-04T22:03:52.400Z,17.90
2022-09-04T22:08:08.439Z,17.90
2022-09-04T22:13:29.336Z,17.82
2022-09-04T22:13:43.500Z,17.86
2022-09-04T22:15:13.916Z,17.81
2022-09-04T22:18:06.696Z,17.79
2022-09-04T22:20:54.795Z,17.76
2022-09-04T22:23:40.288Z,17.74
2022-09-04T22:26:28.736Z,17.66
2022-09-04T22:29:26.780Z,17.62
2022-09-04T22:32:20.340Z,17.64
2022-09-04T22:35:10.121Z,17.62
2022-09-04T22:37:43.729Z,17.54
2022-09-04T22:40:56.048Z,17.48
2022-09-04T22:43:17.034Z,17.44
2022-09-04T22:46:08.573Z,17.44
2022-09-04T22:48:47.916Z,17.40
2022-09-04T22:51:23.129Z,17.38
2022-09-04T22:54:02.716Z,17.37
2022-09-04T22:57:00.617Z,17.34
2022-09-04T22:59:46.224Z,17.28
2022-09-04T23:03:07.157Z,17.26
2022-09-04T23:05:34.356Z,17.28
2022-09-04T23:13:49.924Z,17.22
2022-09-04T23:13:56.230Z,17.29
2022-09-04T23:13:57.317Z,17.23
2022-09-04T23:16:33.658Z,17.18
2022-09-04T23:24:00.066Z,17.15
2022-09-04T23:26:42.225Z,17.22
2022-09-04T23:26:45.677Z,17.23
2022-09-04T23:27:28.297Z,17.15
2022-09-04T23:30:15.261Z,17.09
2022-09-04T23:33:27.919Z,17.10
2022-09-04T23:36:33.612Z,17.22
2022-09-04T23:39:07.151Z,17.04
2022-09-04T23:42:04.737Z,17.05
2022-09-04T23:44:54.867Z,17.02
2022-09-04T23:47:49.859Z,16.98
2022-09-04T23:50:47.576Z,16.95
2022-09-04T23:53:39.564Z,16.93
2022-09-04T23:56:28.199Z,17.02
2022-09-04T23:59:36.466Z,16.94
